sensor_id;sensor_type;location;lat;lon;timestamp;P1;durP1;ratioP1;P2;durP2;ratioP2
18194;SDS011;9223;50.988;3.162;2023-07-31T00:02:18;12.05;;;4.78;;
18194;SDS011;9223;50.988;3.162;2023-07-31T00:08:23;11.55;;;4.10;;
18194;SDS011;9223;50.988;3.162;2023-07-31T00:14:27;11.27;;;4.20;;
18194;SDS011;9223;50.988;3.162;2023-07-31T00:20:30;12.82;;;4.65;;
18194;SDS011;9223;50.988;3.162;2023-07-31T00:26:35;12.27;;;4.75;;
18194;SDS011;9223;50.988;3.162;2023-07-31T00:32:39;13.38;;;4.22;;
18194;SDS011;9223;50.988;3.162;2023-07-31T00:38:43;12.10;;;4.47;;
18194;SDS011;9223;50.988;3.162;2023-07-31T00:44:47;10.10;;;3.90;;
18194;SDS011;9223;50.988;3.162;2023-07-31T00:50:51;10.05;;;4.13;;
18194;SDS011;9223;50.988;3.162;2023-07-31T00:56:54;10.25;;;4.18;;
18194;SDS011;9223;50.988;3.162;2023-07-31T01:02:59;7.82;;;3.42;;
18194;SDS011;9223;50.988;3.162;2023-07-31T01:09:04;8.43;;;3.45;;
18194;SDS011;9223;50.988;3.162;2023-07-31T01:15:10;9.80;;;3.35;;
18194;SDS011;9223;50.988;3.162;2023-07-31T01:21:21;7.90;;;3.17;;
18194;SDS011;9223;50.988;3.162;2023-07-31T01:27:28;7.82;;;2.80;;
18194;SDS011;9223;50.988;3.162;2023-07-31T01:33:33;7.82;;;3.65;;
18194;SDS011;9223;50.988;3.162;2023-07-31T01:39:37;8.32;;;3.25;;
18194;SDS011;9223;50.988;3.162;2023-07-31T01:45:42;8.88;;;3.45;;
18194;SDS011;9223;50.988;3.162;2023-07-31T01:51:45;10.07;;;4.03;;
18194;SDS011;9223;50.988;3.162;2023-07-31T01:57:49;7.22;;;3.00;;
18194;SDS011;9223;50.988;3.162;2023-07-31T02:03:55;8.35;;;3.08;;
18194;SDS011;9223;50.988;3.162;2023-07-31T02:09:59;9.98;;;3.60;;
18194;SDS011;9223;50.988;3.162;2023-07-31T02:16:02;10.93;;;3.55;;
18194;SDS011;9223;50.988;3.162;2023-07-31T02:22:08;9.40;;;3.47;;
18194;SDS011;9223;50.988;3.162;2023-07-31T02:28:11;9.93;;;3.35;;
18194;SDS011;9223;50.988;3.162;2023-07-31T02:34:15;5.35;;;2.55;;
18194;SDS011;9223;50.988;3.162;2023-07-31T02:40:19;8.48;;;3.10;;
18194;SDS011;9223;50.988;3.162;2023-07-31T02:46:23;6.47;;;2.55;;
18194;SDS011;9223;50.988;3.162;2023-07-31T02:52:27;9.23;;;3.25;;
18194;SDS011;9223;50.988;3.162;2023-07-31T02:58:32;12.30;;;3.65;;
18194;SDS011;9223;50.988;3.162;2023-07-31T03:04:35;5.60;;;3.03;;
18194;SDS011;9223;50.988;3.162;2023-07-31T03:10:39;9.38;;;3.15;;
18194;SDS011;9223;50.988;3.162;2023-07-31T03:16:44;7.22;;;3.08;;
18194;SDS011;9223;50.988;3.162;2023-07-31T03:22:47;7.53;;;3.10;;
18194;SDS011;9223;50.988;3.162;2023-07-31T03:28:51;8.70;;;3.67;;
18194;SDS011;9223;50.988;3.162;2023-07-31T03:34:56;6.80;;;2.97;;
18194;SDS011;9223;50.988;3.162;2023-07-31T03:41:00;4.85;;;2.58;;
18194;SDS011;9223;50.988;3.162;2023-07-31T03:47:04;4.40;;;2.78;;
18194;SDS011;9223;50.988;3.162;2023-07-31T03:53:09;7.85;;;3.03;;
18194;SDS011;9223;50.988;3.162;2023-07-31T03:59:13;4.15;;;2.60;;
18194;SDS011;9223;50.988;3.162;2023-07-31T04:05:16;6.72;;;2.70;;
18194;SDS011;9223;50.988;3.162;2023-07-31T04:11:21;8.20;;;2.75;;
18194;SDS011;9223;50.988;3.162;2023-07-31T04:17:25;4.50;;;2.70;;
18194;SDS011;9223;50.988;3.162;2023-07-31T04:23:28;4.60;;;2.20;;
18194;SDS011;9223;50.988;3.162;2023-07-31T04:29:33;5.18;;;2.70;;
18194;SDS011;9223;50.988;3.162;2023-07-31T04:35:37;4.85;;;2.03;;
18194;SDS011;9223;50.988;3.162;2023-07-31T04:41:40;6.00;;;2.47;;
18194;SDS011;9223;50.988;3.162;2023-07-31T04:47:45;6.00;;;2.55;;
18194;SDS011;9223;50.988;3.162;2023-07-31T04:53:49;4.55;;;1.95;;
18194;SDS011;9223;50.988;3.162;2023-07-31T04:59:52;3.95;;;1.73;;
18194;SDS011;9223;50.988;3.162;2023-07-31T05:05:57;3.47;;;2.10;;
18194;SDS011;9223;50.988;3.162;2023-07-31T05:12:01;2.50;;;1.77;;
18194;SDS011;9223;50.988;3.162;2023-07-31T05:18:05;2.65;;;1.73;;
18194;SDS011;9223;50.988;3.162;2023-07-31T05:24:10;2.83;;;1.95;;
18194;SDS011;9223;50.988;3.162;2023-07-31T05:30:13;2.80;;;2.05;;
18194;SDS011;9223;50.988;3.162;2023-07-31T05:36:17;4.43;;;2.35;;
18194;SDS011;9223;50.988;3.162;2023-07-31T05:42:22;4.45;;;2.95;;
18194;SDS011;9223;50.988;3.162;2023-07-31T05:48:25;4.97;;;2.40;;
18194;SDS011;9223;50.988;3.162;2023-07-31T05:54:29;2.72;;;2.13;;
18194;SDS011;9223;50.988;3.162;2023-07-31T06:00:34;3.78;;;1.98;;
18194;SDS011;9223;50.988;3.162;2023-07-31T06:06:38;5.53;;;2.08;;
18194;SDS011;9223;50.988;3.162;2023-07-31T06:12:41;4.28;;;2.35;;
18194;SDS011;9223;50.988;3.162;2023-07-31T06:18:46;5.88;;;2.83;;
18194;SDS011;9223;50.988;3.162;2023-07-31T06:24:50;3.28;;;2.15;;
18194;SDS011;9223;50.988;3.162;2023-07-31T06:30:54;6.40;;;2.47;;
18194;SDS011;9223;50.988;3.162;2023-07-31T06:36:58;3.08;;;2.00;;
18194;SDS011;9223;50.988;3.162;2023-07-31T06:43:02;3.45;;;1.80;;
18194;SDS011;9223;50.988;3.162;2023-07-31T06:49:09;3.65;;;1.88;;
18194;SDS011;9223;50.988;3.162;2023-07-31T06:55:19;2.92;;;1.70;;
18194;SDS011;9223;50.988;3.162;2023-07-31T07:01:23;3.08;;;1.45;;
18194;SDS011;9223;50.988;3.162;2023-07-31T07:07:29;2.50;;;1.80;;
18194;SDS011;9223;50.988;3.162;2023-07-31T07:13:34;3.83;;;1.55;;
18194;SDS011;9223;50.988;3.162;2023-07-31T07:19:40;3.97;;;1.70;;
18194;SDS011;9223;50.988;3.162;2023-07-31T07:25:44;1.80;;;1.52;;
18194;SDS011;9223;50.988;3.162;2023-07-31T07:31:49;1.73;;;1.20;;
18194;SDS011;9223;50.988;3.162;2023-07-31T07:37:53;2.35;;;1.30;;
18194;SDS011;9223;50.988;3.162;2023-07-31T07:43:56;2.40;;;1.20;;
18194;SDS011;9223;50.988;3.162;2023-07-31T07:50:01;1.67;;;1.20;;
18194;SDS011;9223;50.988;3.162;2023-07-31T07:56:09;1.38;;;1.20;;
18194;SDS011;9223;50.988;3.162;2023-07-31T08:02:12;1.80;;;1.23;;
18194;SDS011;9223;50.988;3.162;2023-07-31T08:08:17;1.95;;;1.40;;
18194;SDS011;9223;50.988;3.162;2023-07-31T08:14:21;2.20;;;1.48;;
18194;SDS011;9223;50.988;3.162;2023-07-31T08:20:26;2.97;;;1.38;;
18194;SDS011;9223;50.988;3.162;2023-07-31T08:26:31;1.50;;;1.40;;
18194;SDS011;9223;50.988;3.162;2023-07-31T08:32:34;1.50;;;1.40;;
18194;SDS011;9223;50.988;3.162;2023-07-31T08:38:38;3.38;;;2.13;;
18194;SDS011;9223;50.988;3.162;2023-07-31T08:44:43;3.50;;;1.80;;
18194;SDS011;9223;50.988;3.162;2023-07-31T08:50:46;2.55;;;1.63;;
18194;SDS011;9223;50.988;3.162;2023-07-31T08:56:50;2.53;;;1.90;;
18194;SDS011;9223;50.988;3.162;2023-07-31T09:02:57;3.55;;;1.95;;
18194;SDS011;9223;50.988;3.162;2023-07-31T09:09:03;2.72;;;2.20;;
18194;SDS011;9223;50.988;3.162;2023-07-31T09:15:07;3.70;;;2.30;;
18194;SDS011;9223;50.988;3.162;2023-07-31T09:21:29;2.95;;;2.10;;
18194;SDS011;9223;50.988;3.162;2023-07-31T09:27:42;3.90;;;2.47;;
18194;SDS011;9223;50.988;3.162;2023-07-31T09:33:54;5.47;;;3.13;;
18194;SDS011;9223;50.988;3.162;2023-07-31T09:39:59;4.30;;;2.90;;
18194;SDS011;9223;50.988;3.162;2023-07-31T09:46:03;4.93;;;2.80;;
18194;SDS011;9223;50.988;3.162;2023-07-31T09:52:10;3.22;;;2.20;;
18194;SDS011;9223;50.988;3.162;2023-07-31T09:58:16;3.40;;;2.75;;
18194;SDS011;9223;50.988;3.162;2023-07-31T10:04:19;4.18;;;2.90;;
18194;SDS011;9223;50.988;3.162;2023-07-31T10:10:27;5.10;;;2.95;;
18194;SDS011;9223;50.988;3.162;2023-07-31T10:16:33;4.63;;;2.92;;
18194;SDS011;9223;50.988;3.162;2023-07-31T10:22:38;4.53;;;3.08;;
18194;SDS011;9223;50.988;3.162;2023-07-31T10:28:42;4.35;;;3.08;;
18194;SDS011;9223;50.988;3.162;2023-07-31T10:34:48;4.38;;;2.50;;
18194;SDS011;9223;50.988;3.162;2023-07-31T10:40:52;6.78;;;2.55;;
18194;SDS011;9223;50.988;3.162;2023-07-31T10:47:14;3.88;;;2.58;;
18194;SDS011;9223;50.988;3.162;2023-07-31T10:53:26;4.18;;;2.53;;
18194;SDS011;9223;50.988;3.162;2023-07-31T10:59:32;3.95;;;2.58;;
18194;SDS011;9223;50.988;3.162;2023-07-31T11:12:00;3.65;;;2.38;;
18194;SDS011;9223;50.988;3.162;2023-07-31T11:18:04;2.95;;;2.10;;
18194;SDS011;9223;50.988;3.162;2023-07-31T11:24:09;3.78;;;2.67;;
18194;SDS011;9223;50.988;3.162;2023-07-31T11:30:17;4.65;;;2.53;;
18194;SDS011;9223;50.988;3.162;2023-07-31T11:36:21;3.97;;;2.50;;
18194;SDS011;9223;50.988;3.162;2023-07-31T11:42:25;4.97;;;2.78;;
18194;SDS011;9223;50.988;3.162;2023-07-31T11:48:31;5.38;;;3.17;;
18194;SDS011;9223;50.988;3.162;2023-07-31T11:54:35;3.30;;;2.22;;
18194;SDS011;9223;50.988;3.162;2023-07-31T12:00:39;4.07;;;2.67;;
18194;SDS011;9223;50.988;3.162;2023-07-31T12:06:44;3.85;;;2.05;;
18194;SDS011;9223;50.988;3.162;2023-07-31T12:12:55;3.03;;;1.83;;
18194;SDS011;9223;50.988;3.162;2023-07-31T12:18:58;2.85;;;1.80;;
18194;SDS011;9223;50.988;3.162;2023-07-31T12:25:03;4.55;;;2.75;;
18194;SDS011;9223;50.988;3.162;2023-07-31T12:31:08;2.35;;;2.15;;
18194;SDS011;9223;50.988;3.162;2023-07-31T12:37:12;3.50;;;2.55;;
18194;SDS011;9223;50.988;3.162;2023-07-31T12:43:17;2.00;;;1.58;;
18194;SDS011;9223;50.988;3.162;2023-07-31T12:49:20;2.58;;;2.33;;
18194;SDS011;9223;50.988;3.162;2023-07-31T12:55:24;2.30;;;2.10;;
18194;SDS011;9223;50.988;3.162;2023-07-31T13:01:29;3.40;;;2.10;;
18194;SDS011;9223;50.988;3.162;2023-07-31T13:07:33;2.35;;;2.00;;
18194;SDS011;9223;50.988;3.162;2023-07-31T13:13:37;2.55;;;1.60;;
18194;SDS011;9223;50.988;3.162;2023-07-31T13:19:42;1.83;;;1.00;;
18194;SDS011;9223;50.988;3.162;2023-07-31T13:25:45;1.95;;;1.35;;
18194;SDS011;9223;50.988;3.162;2023-07-31T13:31:49;1.10;;;1.00;;
18194;SDS011;9223;50.988;3.162;2023-07-31T13:37:54;1.33;;;0.88;;
18194;SDS011;9223;50.988;3.162;2023-07-31T13:43:57;1.50;;;1.23;;
18194;SDS011;9223;50.988;3.162;2023-07-31T13:50:01;2.15;;;1.00;;
18194;SDS011;9223;50.988;3.162;2023-07-31T13:56:06;0.82;;;0.80;;
18194;SDS011;9223;50.988;3.162;2023-07-31T14:02:09;0.50;;;0.47;;
18194;SDS011;9223;50.988;3.162;2023-07-31T14:08:13;0.93;;;0.57;;
18194;SDS011;9223;50.988;3.162;2023-07-31T14:14:18;0.80;;;0.73;;
18194;SDS011;9223;50.988;3.162;2023-07-31T14:20:21;0.80;;;0.60;;
18194;SDS011;9223;50.988;3.162;2023-07-31T14:26:25;0.55;;;0.55;;
18194;SDS011;9223;50.988;3.162;2023-07-31T14:32:30;0.75;;;0.32;;
18194;SDS011;9223;50.988;3.162;2023-07-31T14:38:33;0.40;;;0.40;;
18194;SDS011;9223;50.988;3.162;2023-07-31T14:44:37;0.43;;;0.40;;
18194;SDS011;9223;50.988;3.162;2023-07-31T14:50:42;1.15;;;0.50;;
18194;SDS011;9223;50.988;3.162;2023-07-31T14:56:45;0.30;;;0.30;;
18194;SDS011;9223;50.988;3.162;2023-07-31T15:02:49;0.40;;;0.35;;
18194;SDS011;9223;50.988;3.162;2023-07-31T15:08:54;0.52;;;0.35;;
18194;SDS011;9223;50.988;3.162;2023-07-31T15:14:58;1.60;;;0.30;;
18194;SDS011;9223;50.988;3.162;2023-07-31T15:21:02;0.28;;;0.28;;
18194;SDS011;9223;50.988;3.162;2023-07-31T15:27:07;0.65;;;0.30;;
18194;SDS011;9223;50.988;3.162;2023-07-31T15:33:10;0.40;;;0.35;;
18194;SDS011;9223;50.988;3.162;2023-07-31T15:39:14;0.35;;;0.30;;
18194;SDS011;9223;50.988;3.162;2023-07-31T15:45:19;0.22;;;0.20;;
18194;SDS011;9223;50.988;3.162;2023-07-31T15:51:23;0.43;;;0.25;;
18194;SDS011;9223;50.988;3.162;2023-07-31T15:57:26;1.17;;;0.30;;
18194;SDS011;9223;50.988;3.162;2023-07-31T16:03:33;0.20;;;0.20;;
18194;SDS011;9223;50.988;3.162;2023-07-31T16:09:36;0.47;;;0.40;;
18194;SDS011;9223;50.988;3.162;2023-07-31T16:15:40;0.73;;;0.45;;
18194;SDS011;9223;50.988;3.162;2023-07-31T16:21:45;0.30;;;0.30;;
18194;SDS011;9223;50.988;3.162;2023-07-31T16:27:48;0.40;;;0.40;;
18194;SDS011;9223;50.988;3.162;2023-07-31T16:33:52;0.60;;;0.30;;
18194;SDS011;9223;50.988;3.162;2023-07-31T16:39:57;0.75;;;0.30;;
18194;SDS011;9223;50.988;3.162;2023-07-31T16:46:00;0.52;;;0.45;;
18194;SDS011;9223;50.988;3.162;2023-07-31T16:52:04;0.30;;;0.30;;
18194;SDS011;9223;50.988;3.162;2023-07-31T16:58:09;0.65;;;0.30;;
18194;SDS011;9223;50.988;3.162;2023-07-31T17:04:12;1.10;;;0.68;;
18194;SDS011;9223;50.988;3.162;2023-07-31T17:10:16;0.63;;;0.30;;
18194;SDS011;9223;50.988;3.162;2023-07-31T17:16:21;1.25;;;0.50;;
18194;SDS011;9223;50.988;3.162;2023-07-31T17:22:25;0.90;;;0.20;;
18194;SDS011;9223;50.988;3.162;2023-07-31T17:28:48;0.43;;;0.20;;
18194;SDS011;9223;50.988;3.162;2023-07-31T17:34:53;1.10;;;0.22;;
18194;SDS011;9223;50.988;3.162;2023-07-31T17:40:56;0.40;;;0.20;;
18194;SDS011;9223;50.988;3.162;2023-07-31T17:47:00;0.50;;;0.50;;
18194;SDS011;9223;50.988;3.162;2023-07-31T17:53:05;0.63;;;0.40;;
18194;SDS011;9223;50.988;3.162;2023-07-31T17:59:08;0.75;;;0.40;;
18194;SDS011;9223;50.988;3.162;2023-07-31T18:05:13;0.40;;;0.40;;
18194;SDS011;9223;50.988;3.162;2023-07-31T18:11:18;1.77;;;0.50;;
18194;SDS011;9223;50.988;3.162;2023-07-31T18:17:22;0.47;;;0.40;;
18194;SDS011;9223;50.988;3.162;2023-07-31T18:23:27;0.70;;;0.60;;
18194;SDS011;9223;50.988;3.162;2023-07-31T18:29:32;0.65;;;0.45;;
18194;SDS011;9223;50.988;3.162;2023-07-31T18:35:37;4.13;;;0.50;;
18194;SDS011;9223;50.988;3.162;2023-07-31T18:41:41;1.88;;;0.50;;
18194;SDS011;9223;50.988;3.162;2023-07-31T18:47:45;1.58;;;0.50;;
18194;SDS011;9223;50.988;3.162;2023-07-31T18:53:49;0.98;;;0.70;;
18194;SDS011;9223;50.988;3.162;2023-07-31T18:59:52;0.57;;;0.40;;
18194;SDS011;9223;50.988;3.162;2023-07-31T19:06:01;0.60;;;0.60;;
18194;SDS011;9223;50.988;3.162;2023-07-31T19:12:05;1.25;;;0.65;;
18194;SDS011;9223;50.988;3.162;2023-07-31T19:18:09;1.17;;;0.65;;
18194;SDS011;9223;50.988;3.162;2023-07-31T19:24:13;0.80;;;0.52;;
18194;SDS011;9223;50.988;3.162;2023-07-31T19:30:17;3.08;;;0.70;;
18194;SDS011;9223;50.988;3.162;2023-07-31T19:36:20;1.42;;;0.65;;
18194;SDS011;9223;50.988;3.162;2023-07-31T19:42:25;1.00;;;0.60;;
18194;SDS011;9223;50.988;3.162;2023-07-31T19:48:29;1.95;;;0.82;;
18194;SDS011;9223;50.988;3.162;2023-07-31T19:54:33;1.10;;;0.70;;
18194;SDS011;9223;50.988;3.162;2023-07-31T20:00:38;1.35;;;0.82;;
18194;SDS011;9223;50.988;3.162;2023-07-31T20:06:41;3.33;;;0.90;;
18194;SDS011;9223;50.988;3.162;2023-07-31T20:12:45;1.80;;;0.75;;
18194;SDS011;9223;50.988;3.162;2023-07-31T20:18:50;1.88;;;0.90;;
18194;SDS011;9223;50.988;3.162;2023-07-31T20:24:53;2.40;;;1.00;;
18194;SDS011;9223;50.988;3.162;2023-07-31T20:30:57;1.70;;;0.90;;
18194;SDS011;9223;50.988;3.162;2023-07-31T20:37:02;1.55;;;0.80;;
18194;SDS011;9223;50.988;3.162;2023-07-31T20:43:05;2.80;;;0.80;;
18194;SDS011;9223;50.988;3.162;2023-07-31T20:49:09;2.75;;;0.95;;
18194;SDS011;9223;50.988;3.162;2023-07-31T20:55:14;2.75;;;1.10;;
18194;SDS011;9223;50.988;3.162;2023-07-31T21:01:18;1.58;;;1.08;;
18194;SDS011;9223;50.988;3.162;2023-07-31T21:07:22;3.38;;;1.30;;
18194;SDS011;9223;50.988;3.162;2023-07-31T21:13:27;1.90;;;1.20;;
18194;SDS011;9223;50.988;3.162;2023-07-31T21:19:31;1.45;;;1.10;;
18194;SDS011;9223;50.988;3.162;2023-07-31T21:25:34;3.50;;;1.40;;
18194;SDS011;9223;50.988;3.162;2023-07-31T21:31:39;1.83;;;1.27;;
18194;SDS011;9223;50.988;3.162;2023-07-31T21:37:43;1.70;;;1.05;;
18194;SDS011;9223;50.988;3.162;2023-07-31T21:43:46;2.72;;;1.30;;
18194;SDS011;9223;50.988;3.162;2023-07-31T21:49:52;2.92;;;1.48;;
18194;SDS011;9223;50.988;3.162;2023-07-31T21:55:55;3.05;;;1.40;;
18194;SDS011;9223;50.988;3.162;2023-07-31T22:01:59;2.13;;;1.48;;
18194;SDS011;9223;50.988;3.162;2023-07-31T22:08:05;5.75;;;1.80;;
18194;SDS011;9223;50.988;3.162;2023-07-31T22:14:08;4.60;;;1.95;;
18194;SDS011;9223;50.988;3.162;2023-07-31T22:20:12;3.45;;;1.45;;
18194;SDS011;9223;50.988;3.162;2023-07-31T22:26:17;3.33;;;1.70;;
18194;SDS011;9223;50.988;3.162;2023-07-31T22:32:20;3.05;;;2.05;;
18194;SDS011;9223;50.988;3.162;2023-07-31T22:38:24;3.58;;;1.50;;
18194;SDS011;9223;50.988;3.162;2023-07-31T22:44:29;3.22;;;1.83;;
18194;SDS011;9223;50.988;3.162;2023-07-31T22:50:32;3.80;;;1.60;;
18194;SDS011;9223;50.988;3.162;2023-07-31T22:56:36;3.42;;;1.70;;
18194;SDS011;9223;50.988;3.162;2023-07-31T23:02:42;4.25;;;1.77;;
18194;SDS011;9223;50.988;3.162;2023-07-31T23:08:46;4.32;;;2.13;;
18194;SDS011;9223;50.988;3.162;2023-07-31T23:14:50;5.65;;;1.90;;
18194;SDS011;9223;50.988;3.162;2023-07-31T23:20:54;2.63;;;1.70;;
18194;SDS011;9223;50.988;3.162;2023-07-31T23:26:58;3.15;;;2.00;;
18194;SDS011;9223;50.988;3.162;2023-07-31T23:33:02;3.55;;;1.90;;
18194;SDS011;9223;50.988;3.162;2023-07-31T23:39:07;3.70;;;2.05;;
18194;SDS011;9223;50.988;3.162;2023-07-31T23:45:11;6.57;;;1.63;;
18194;SDS011;9223;50.988;3.162;2023-07-31T23:51:17;3.70;;;2.28;;
18194;SDS011;9223;50.988;3.162;2023-07-31T23:57:22;3.58;;;1.83;;
